sensor_id;sensor_type;location;lat;lon;timestamp;temperature;humidity
21489;DHT22;10906;45.194;5.684;2023-05-19T08:25:20;14.70;99.90
21489;DHT22;10906;45.194;5.684;2023-05-19T08:28:10;14.80;99.90
21489;DHT22;10906;45.194;5.684;2023-05-19T08:31:00;14.80;99.90
21489;DHT22;10906;45.194;5.684;2023-05-19T08:36:35;14.80;99.90
21489;DHT22;10906;45.194;5.684;2023-05-19T09:11:32;15.50;99.90
21489;DHT22;10906;45.194;5.684;2023-05-19T09:15:11;15.50;99.90
21489;DHT22;10906;45.194;5.684;2023-05-19T09:18:13;15.60;99.90
21489;DHT22;10906;45.194;5.684;2023-05-19T09:24:15;15.70;99.90
21489;DHT22;10906;45.194;5.684;2023-05-19T09:29:48;15.90;99.90
21489;DHT22;10906;45.194;5.684;2023-05-19T09:38:25;16.30;99.90
21489;DHT22;10906;45.194;5.684;2023-05-19T09:44:02;16.40;99.90
21489;DHT22;10906;45.194;5.684;2023-05-19T09:46:56;16.50;99.90
21489;DHT22;10906;45.194;5.684;2023-05-19T09:49:46;16.70;99.90
21489;DHT22;10906;45.194;5.684;2023-05-19T09:55:25;16.80;99.90
21489;DHT22;10906;45.194;5.684;2023-05-19T09:58:15;16.90;99.90
21489;DHT22;10906;45.194;5.684;2023-05-19T10:01:02;16.90;99.90
21489;DHT22;10906;45.194;5.684;2023-05-19T10:06:40;17.00;99.90
21489;DHT22;10906;45.194;5.684;2023-05-19T10:09:26;17.00;99.90
21489;DHT22;10906;45.194;5.684;2023-05-19T10:12:13;17.00;99.90
21489;DHT22;10906;45.194;5.684;2023-05-19T10:15:10;17.00;99.90
21489;DHT22;10906;45.194;5.684;2023-05-19T10:17:55;17.10;99.90
21489;DHT22;10906;45.194;5.684;2023-05-19T10:26:22;17.20;99.90
21489;DHT22;10906;45.194;5.684;2023-05-19T10:29:11;17.20;99.90
21489;DHT22;10906;45.194;5.684;2023-05-19T10:32:01;17.20;99.90
21489;DHT22;10906;45.194;5.684;2023-05-19T10:35:13;17.30;99.90
21489;DHT22;10906;45.194;5.684;2023-05-19T10:41:33;17.30;99.90
21489;DHT22;10906;45.194;5.684;2023-05-19T10:47:28;17.40;99.90
21489;DHT22;10906;45.194;5.684;2023-05-19T10:56:38;17.60;99.90
21489;DHT22;10906;45.194;5.684;2023-05-19T10:59:30;17.60;99.90
21489;DHT22;10906;45.194;5.684;2023-05-19T11:06:16;17.70;99.90
21489;DHT22;10906;45.194;5.684;2023-05-19T11:12:01;17.70;99.90
21489;DHT22;10906;45.194;5.684;2023-05-19T11:14:53;17.80;99.90
21489;DHT22;10906;45.194;5.684;2023-05-19T11:17:39;17.90;99.90
21489;DHT22;10906;45.194;5.684;2023-05-19T11:20:26;17.80;99.90
21489;DHT22;10906;45.194;5.684;2023-05-19T11:23:15;17.80;99.90
21489;DHT22;10906;45.194;5.684;2023-05-19T11:28:48;18.10;99.90
21489;DHT22;10906;45.194;5.684;2023-05-19T11:32:43;18.10;99.90
21489;DHT22;10906;45.194;5.684;2023-05-19T11:37:50;18.00;99.90
21489;DHT22;10906;45.194;5.684;2023-05-19T11:58:11;17.80;99.90
21489;DHT22;10906;45.194;5.684;2023-05-19T12:01:02;17.80;99.90
21489;DHT22;10906;45.194;5.684;2023-05-19T12:11:33;17.60;99.90
21489;DHT22;10906;45.194;5.684;2023-05-19T12:54:24;17.90;99.90
21489;DHT22;10906;45.194;5.684;2023-05-19T13:06:01;18.20;99.90
21489;DHT22;10906;45.194;5.684;2023-05-19T13:12:35;18.30;99.90
21489;DHT22;10906;45.194;5.684;2023-05-19T13:15:27;18.40;99.90
21489;DHT22;10906;45.194;5.684;2023-05-19T13:18:59;18.50;99.90
21489;DHT22;10906;45.194;5.684;2023-05-19T13:22:28;18.50;99.90
21489;DHT22;10906;45.194;5.684;2023-05-19T13:25:42;18.50;99.90
21489;DHT22;10906;45.194;5.684;2023-05-19T13:33:41;18.50;99.90
21489;DHT22;10906;45.194;5.684;2023-05-19T13:37:35;18.50;99.60
21489;DHT22;10906;45.194;5.684;2023-05-19T14:02:21;18.80;99.50
21489;DHT22;10906;45.194;5.684;2023-05-19T14:09:53;18.60;99.90
21489;DHT22;10906;45.194;5.684;2023-05-19T14:15:25;18.50;99.80
21489;DHT22;10906;45.194;5.684;2023-05-19T14:18:12;18.40;99.40
21489;DHT22;10906;45.194;5.684;2023-05-19T14:21:05;18.40;99.40
21489;DHT22;10906;45.194;5.684;2023-05-19T14:26:43;21.40;99.90
21489;DHT22;10906;45.194;5.684;2023-05-19T14:29:50;18.40;99.70
21489;DHT22;10906;45.194;5.684;2023-05-19T14:36:16;18.40;99.80
21489;DHT22;10906;45.194;5.684;2023-05-19T14:44:58;18.30;99.50
21489;DHT22;10906;45.194;5.684;2023-05-19T14:47:52;18.20;99.30
21489;DHT22;10906;45.194;5.684;2023-05-19T14:54:34;18.20;99.60
21489;DHT22;10906;45.194;5.684;2023-05-19T14:58:05;18.20;99.60
21489;DHT22;10906;45.194;5.684;2023-05-19T15:06:31;18.20;99.70
21489;DHT22;10906;45.194;5.684;2023-05-19T15:12:05;18.20;99.90
21489;DHT22;10906;45.194;5.684;2023-05-19T15:15:00;18.20;99.90
21489;DHT22;10906;45.194;5.684;2023-05-19T15:20:38;18.10;99.90
21489;DHT22;10906;45.194;5.684;2023-05-19T15:26:19;18.00;99.90
21489;DHT22;10906;45.194;5.684;2023-05-19T15:40:25;17.90;99.90
21489;DHT22;10906;45.194;5.684;2023-05-19T15:43:17;17.80;99.90
21489;DHT22;10906;45.194;5.684;2023-05-19T15:51:43;17.70;99.90
21489;DHT22;10906;45.194;5.684;2023-05-19T15:54:31;17.60;99.90
21489;DHT22;10906;45.194;5.684;2023-05-19T16:06:36;17.40;99.90
21489;DHT22;10906;45.194;5.684;2023-05-19T16:12:28;17.30;99.90
21489;DHT22;10906;45.194;5.684;2023-05-19T16:25:23;16.90;99.90
21489;DHT22;10906;45.194;5.684;2023-05-19T16:31:15;16.80;99.90
21489;DHT22;10906;45.194;5.684;2023-05-19T16:34:48;16.70;99.90
21489;DHT22;10906;45.194;5.684;2023-05-19T16:43:30;16.50;99.90
21489;DHT22;10906;45.194;5.684;2023-05-19T16:46:24;16.40;99.90
21489;DHT22;10906;45.194;5.684;2023-05-19T16:52:37;16.20;99.90
21489;DHT22;10906;45.194;5.684;2023-05-19T16:55:50;16.20;99.90
21489;DHT22;10906;45.194;5.684;2023-05-19T16:58:59;16.10;99.90
21489;DHT22;10906;45.194;5.684;2023-05-19T17:20:37;15.60;99.90
21489;DHT22;10906;45.194;5.684;2023-05-19T17:23:34;15.50;99.90
21489;DHT22;10906;45.194;5.684;2023-05-19T17:26:46;15.40;99.90
21489;DHT22;10906;45.194;5.684;2023-05-19T17:30:19;15.40;99.90
21489;DHT22;10906;45.194;5.684;2023-05-19T17:47:00;15.10;99.90
21489;DHT22;10906;45.194;5.684;2023-05-19T17:50:17;15.00;99.90
21489;DHT22;10906;45.194;5.684;2023-05-19T17:53:42;15.00;99.90
21489;DHT22;10906;45.194;5.684;2023-05-19T17:57:14;15.00;99.90
21489;DHT22;10906;45.194;5.684;2023-05-19T18:00:10;15.00;99.90
21489;DHT22;10906;45.194;5.684;2023-05-19T18:06:50;14.90;99.90
21489;DHT22;10906;45.194;5.684;2023-05-19T18:13:31;14.90;99.90
21489;DHT22;10906;45.194;5.684;2023-05-19T18:17:33;14.90;99.90
21489;DHT22;10906;45.194;5.684;2023-05-19T18:21:19;14.80;99.90
21489;DHT22;10906;45.194;5.684;2023-05-19T18:30:10;14.70;99.90
21489;DHT22;10906;45.194;5.684;2023-05-19T18:33:25;14.70;99.90
21489;DHT22;10906;45.194;5.684;2023-05-19T18:36:50;14.70;99.90
21489;DHT22;10906;45.194;5.684;2023-05-19T19:26:40;14.20;99.90
21489;DHT22;10906;45.194;5.684;2023-05-19T19:58:36;14.00;99.90
21489;DHT22;10906;45.194;5.684;2023-05-19T20:09:38;14.00;99.90
21489;DHT22;10906;45.194;5.684;2023-05-19T20:31:50;14.00;99.90
21489;DHT22;10906;45.194;5.684;2023-05-19T20:40:14;14.00;99.90
21489;DHT22;10906;45.194;5.684;2023-05-19T20:48:44;13.90;99.90
21489;DHT22;10906;45.194;5.684;2023-05-19T21:05:38;13.90;99.90
21489;DHT22;10906;45.194;5.684;2023-05-19T21:08:23;13.80;99.90
21489;DHT22;10906;45.194;5.684;2023-05-19T21:14:06;13.80;99.90
21489;DHT22;10906;45.194;5.684;2023-05-19T21:16:54;13.80;99.90
21489;DHT22;10906;45.194;5.684;2023-05-19T21:30:47;13.80;99.90
21489;DHT22;10906;45.194;5.684;2023-05-19T21:55:47;13.90;99.90
